sensor_id;sensor_type;location;lat;lon;timestamp;temperature;humidity
35497;DHT22;21609;49.298;6.844;2023-06-22T00:02:13;25.40;58.40
35497;DHT22;21609;49.298;6.844;2023-06-22T00:04:38;25.40;58.90
35497;DHT22;21609;49.298;6.844;2023-06-22T00:07:04;25.30;58.70
35497;DHT22;21609;49.298;6.844;2023-06-22T00:09:31;25.30;58.20
35497;DHT22;21609;49.298;6.844;2023-06-22T00:11:56;25.30;58.40
35497;DHT22;21609;49.298;6.844;2023-06-22T00:14:22;25.30;58.70
35497;DHT22;21609;49.298;6.844;2023-06-22T00:16:47;25.30;58.70
35497;DHT22;21609;49.298;6.844;2023-06-22T00:19:15;25.30;58.80
35497;DHT22;21609;49.298;6.844;2023-06-22T00:21:40;25.30;58.70
35497;DHT22;21609;49.298;6.844;2023-06-22T00:24:06;25.30;58.70
35497;DHT22;21609;49.298;6.844;2023-06-22T00:26:32;25.30;58.80
35497;DHT22;21609;49.298;6.844;2023-06-22T00:28:57;25.30;58.90
35497;DHT22;21609;49.298;6.844;2023-06-22T00:31:23;25.30;58.80
35497;DHT22;21609;49.298;6.844;2023-06-22T00:33:48;25.30;58.70
35497;DHT22;21609;49.298;6.844;2023-06-22T00:36:16;25.30;58.90
35497;DHT22;21609;49.298;6.844;2023-06-22T00:38:43;25.30;59.10
35497;DHT22;21609;49.298;6.844;2023-06-22T00:41:08;25.30;58.70
35497;DHT22;21609;49.298;6.844;2023-06-22T00:43:34;25.30;59.00
35497;DHT22;21609;49.298;6.844;2023-06-22T00:45:59;25.30;58.80
35497;DHT22;21609;49.298;6.844;2023-06-22T00:48:25;25.30;58.90
35497;DHT22;21609;49.298;6.844;2023-06-22T00:50:51;25.30;59.00
35497;DHT22;21609;49.298;6.844;2023-06-22T00:53:19;25.30;58.90
35497;DHT22;21609;49.298;6.844;2023-06-22T00:55:45;25.20;58.90
35497;DHT22;21609;49.298;6.844;2023-06-22T00:58:17;25.30;58.80
35497;DHT22;21609;49.298;6.844;2023-06-22T01:00:43;25.20;58.80
35497;DHT22;21609;49.298;6.844;2023-06-22T01:03:09;25.20;58.70
35497;DHT22;21609;49.298;6.844;2023-06-22T01:05:35;25.20;58.80
35497;DHT22;21609;49.298;6.844;2023-06-22T01:10:56;25.20;59.00
35497;DHT22;21609;49.298;6.844;2023-06-22T01:13:32;25.20;59.00
35497;DHT22;21609;49.298;6.844;2023-06-22T01:16:23;25.20;59.10
35497;DHT22;21609;49.298;6.844;2023-06-22T01:18:51;25.20;59.00
35497;DHT22;21609;49.298;6.844;2023-06-22T01:21:19;25.20;59.10
35497;DHT22;21609;49.298;6.844;2023-06-22T01:26:25;25.20;59.20
35497;DHT22;21609;49.298;6.844;2023-06-22T01:28:55;25.20;59.20
35497;DHT22;21609;49.298;6.844;2023-06-22T01:31:24;25.20;59.40
35497;DHT22;21609;49.298;6.844;2023-06-22T01:33:53;25.20;59.10
35497;DHT22;21609;49.298;6.844;2023-06-22T01:36:22;25.20;59.40
35497;DHT22;21609;49.298;6.844;2023-06-22T01:38:48;25.20;59.20
35497;DHT22;21609;49.298;6.844;2023-06-22T01:41:15;25.20;59.20
35497;DHT22;21609;49.298;6.844;2023-06-22T01:43:43;25.20;59.20
35497;DHT22;21609;49.298;6.844;2023-06-22T01:46:09;25.20;59.30
35497;DHT22;21609;49.298;6.844;2023-06-22T01:48:35;25.10;59.10
35497;DHT22;21609;49.298;6.844;2023-06-22T01:51:01;25.10;59.10
35497;DHT22;21609;49.298;6.844;2023-06-22T01:53:27;25.10;59.30
35497;DHT22;21609;49.298;6.844;2023-06-22T01:55:52;25.10;59.30
35497;DHT22;21609;49.298;6.844;2023-06-22T01:58:21;25.10;59.30
35497;DHT22;21609;49.298;6.844;2023-06-22T02:00:53;25.10;59.40
35497;DHT22;21609;49.298;6.844;2023-06-22T02:03:39;25.10;59.40
35497;DHT22;21609;49.298;6.844;2023-06-22T02:06:10;25.10;58.90
35497;DHT22;21609;49.298;6.844;2023-06-22T02:08:48;25.10;59.10
35497;DHT22;21609;49.298;6.844;2023-06-22T02:11:17;25.10;59.40
35497;DHT22;21609;49.298;6.844;2023-06-22T02:13:44;25.10;59.10
35497;DHT22;21609;49.298;6.844;2023-06-22T02:16:11;25.10;59.20
35497;DHT22;21609;49.298;6.844;2023-06-22T02:18:37;25.10;59.40
35497;DHT22;21609;49.298;6.844;2023-06-22T02:21:03;25.10;59.20
35497;DHT22;21609;49.298;6.844;2023-06-22T02:23:28;25.10;59.20
35497;DHT22;21609;49.298;6.844;2023-06-22T02:25:54;25.10;59.20
35497;DHT22;21609;49.298;6.844;2023-06-22T02:28:19;25.10;59.20
35497;DHT22;21609;49.298;6.844;2023-06-22T02:30:45;25.10;59.30
35497;DHT22;21609;49.298;6.844;2023-06-22T02:33:11;25.10;59.30
35497;DHT22;21609;49.298;6.844;2023-06-22T02:35:37;25.10;59.40
35497;DHT22;21609;49.298;6.844;2023-06-22T02:38:03;25.10;59.40
35497;DHT22;21609;49.298;6.844;2023-06-22T02:40:29;25.10;59.40
35497;DHT22;21609;49.298;6.844;2023-06-22T02:42:56;25.10;59.20
35497;DHT22;21609;49.298;6.844;2023-06-22T02:45:23;25.00;59.40
35497;DHT22;21609;49.298;6.844;2023-06-22T02:47:49;25.00;59.20
35497;DHT22;21609;49.298;6.844;2023-06-22T02:50:15;25.00;59.20
35497;DHT22;21609;49.298;6.844;2023-06-22T02:52:40;25.00;59.40
35497;DHT22;21609;49.298;6.844;2023-06-22T02:55:06;25.00;59.40
35497;DHT22;21609;49.298;6.844;2023-06-22T02:57:33;25.00;59.20
35497;DHT22;21609;49.298;6.844;2023-06-22T02:59:59;25.00;59.50
35497;DHT22;21609;49.298;6.844;2023-06-22T03:02:25;25.00;59.40
35497;DHT22;21609;49.298;6.844;2023-06-22T03:04:52;25.00;59.40
35497;DHT22;21609;49.298;6.844;2023-06-22T03:07:19;25.00;59.50
35497;DHT22;21609;49.298;6.844;2023-06-22T03:09:45;25.00;59.30
35497;DHT22;21609;49.298;6.844;2023-06-22T03:12:11;25.00;59.30
35497;DHT22;21609;49.298;6.844;2023-06-22T03:14:37;25.00;59.30
35497;DHT22;21609;49.298;6.844;2023-06-22T03:17:04;24.90;60.30
35497;DHT22;21609;49.298;6.844;2023-06-22T03:19:30;24.60;62.00
35497;DHT22;21609;49.298;6.844;2023-06-22T03:21:59;24.30;63.20
35497;DHT22;21609;49.298;6.844;2023-06-22T03:24:24;24.20;64.00
35497;DHT22;21609;49.298;6.844;2023-06-22T03:26:50;24.00;64.60
35497;DHT22;21609;49.298;6.844;2023-06-22T03:29:15;24.00;64.70
35497;DHT22;21609;49.298;6.844;2023-06-22T03:31:41;24.20;63.70
35497;DHT22;21609;49.298;6.844;2023-06-22T03:34:06;24.30;62.90
35497;DHT22;21609;49.298;6.844;2023-06-22T03:36:32;24.40;62.30
35497;DHT22;21609;49.298;6.844;2023-06-22T03:38:58;24.50;61.80
35497;DHT22;21609;49.298;6.844;2023-06-22T03:41:23;24.50;61.50
35497;DHT22;21609;49.298;6.844;2023-06-22T03:43:49;24.50;61.20
35497;DHT22;21609;49.298;6.844;2023-06-22T03:46:14;24.60;61.20
35497;DHT22;21609;49.298;6.844;2023-06-22T03:48:40;24.50;60.70
35497;DHT22;21609;49.298;6.844;2023-06-22T03:51:06;24.60;60.90
35497;DHT22;21609;49.298;6.844;2023-06-22T03:53:31;24.60;60.90
35497;DHT22;21609;49.298;6.844;2023-06-22T03:55:57;24.60;60.80
35497;DHT22;21609;49.298;6.844;2023-06-22T03:58:23;24.60;60.80
35497;DHT22;21609;49.298;6.844;2023-06-22T04:00:52;24.60;60.80
35497;DHT22;21609;49.298;6.844;2023-06-22T04:03:18;24.60;60.50
35497;DHT22;21609;49.298;6.844;2023-06-22T04:05:44;24.60;60.50
35497;DHT22;21609;49.298;6.844;2023-06-22T04:08:10;24.60;60.40
35497;DHT22;21609;49.298;6.844;2023-06-22T04:10:36;24.60;60.30
35497;DHT22;21609;49.298;6.844;2023-06-22T04:13:01;24.60;60.60
35497;DHT22;21609;49.298;6.844;2023-06-22T04:15:27;24.60;60.40
35497;DHT22;21609;49.298;6.844;2023-06-22T04:17:54;24.60;60.50
35497;DHT22;21609;49.298;6.844;2023-06-22T04:20:20;24.60;60.40
35497;DHT22;21609;49.298;6.844;2023-06-22T04:22:46;24.70;60.40
35497;DHT22;21609;49.298;6.844;2023-06-22T04:25:11;24.60;60.50
35497;DHT22;21609;49.298;6.844;2023-06-22T04:27:37;24.60;60.30
35497;DHT22;21609;49.298;6.844;2023-06-22T04:30:06;24.60;62.00
35497;DHT22;21609;49.298;6.844;2023-06-22T04:32:35;24.30;64.40
35497;DHT22;21609;49.298;6.844;2023-06-22T04:35:05;24.10;65.00
35497;DHT22;21609;49.298;6.844;2023-06-22T04:37:32;24.00;65.40
35497;DHT22;21609;49.298;6.844;2023-06-22T04:39:57;23.90;65.90
35497;DHT22;21609;49.298;6.844;2023-06-22T04:42:24;23.80;66.80
35497;DHT22;21609;49.298;6.844;2023-06-22T04:44:50;23.80;67.20
35497;DHT22;21609;49.298;6.844;2023-06-22T04:47:16;23.80;67.60
35497;DHT22;21609;49.298;6.844;2023-06-22T04:49:41;23.80;67.50
35497;DHT22;21609;49.298;6.844;2023-06-22T04:52:09;23.80;67.70
35497;DHT22;21609;49.298;6.844;2023-06-22T04:54:37;23.80;67.80
35497;DHT22;21609;49.298;6.844;2023-06-22T04:57:04;23.80;67.90
35497;DHT22;21609;49.298;6.844;2023-06-22T04:59:31;23.70;68.50
35497;DHT22;21609;49.298;6.844;2023-06-22T05:01:57;23.70;69.30
35497;DHT22;21609;49.298;6.844;2023-06-22T05:04:23;23.70;69.60
35497;DHT22;21609;49.298;6.844;2023-06-22T05:06:52;23.70;68.80
35497;DHT22;21609;49.298;6.844;2023-06-22T05:09:18;23.70;69.10
35497;DHT22;21609;49.298;6.844;2023-06-22T05:11:44;23.70;68.70
35497;DHT22;21609;49.298;6.844;2023-06-22T05:14:10;23.70;69.10
35497;DHT22;21609;49.298;6.844;2023-06-22T05:16:40;23.70;69.30
35497;DHT22;21609;49.298;6.844;2023-06-22T05:19:06;23.70;70.00
35497;DHT22;21609;49.298;6.844;2023-06-22T05:21:31;23.70;69.90
35497;DHT22;21609;49.298;6.844;2023-06-22T05:23:57;23.60;69.90
35497;DHT22;21609;49.298;6.844;2023-06-22T05:26:26;23.70;69.80
35497;DHT22;21609;49.298;6.844;2023-06-22T05:28:52;23.70;70.10
35497;DHT22;21609;49.298;6.844;2023-06-22T05:31:18;23.70;70.20
35497;DHT22;21609;49.298;6.844;2023-06-22T05:33:48;23.80;70.20
35497;DHT22;21609;49.298;6.844;2023-06-22T05:36:14;23.80;69.80
35497;DHT22;21609;49.298;6.844;2023-06-22T05:38:40;23.80;69.60
35497;DHT22;21609;49.298;6.844;2023-06-22T05:41:07;23.80;69.90
35497;DHT22;21609;49.298;6.844;2023-06-22T05:43:32;23.80;69.90
35497;DHT22;21609;49.298;6.844;2023-06-22T05:45:59;23.80;69.20
35497;DHT22;21609;49.298;6.844;2023-06-22T05:48:25;23.80;69.80
35497;DHT22;21609;49.298;6.844;2023-06-22T05:50:50;23.80;70.20
35497;DHT22;21609;49.298;6.844;2023-06-22T05:53:16;23.80;70.30
35497;DHT22;21609;49.298;6.844;2023-06-22T05:55:42;23.90;69.60
35497;DHT22;21609;49.298;6.844;2023-06-22T05:58:08;23.90;69.60
35497;DHT22;21609;49.298;6.844;2023-06-22T06:00:34;23.90;69.10
35497;DHT22;21609;49.298;6.844;2023-06-22T06:03:00;24.00;69.80
35497;DHT22;21609;49.298;6.844;2023-06-22T06:05:32;23.90;69.70
35497;DHT22;21609;49.298;6.844;2023-06-22T06:08:02;23.90;69.60
35497;DHT22;21609;49.298;6.844;2023-06-22T06:10:30;23.90;69.50
35497;DHT22;21609;49.298;6.844;2023-06-22T06:12:56;24.00;70.20
35497;DHT22;21609;49.298;6.844;2023-06-22T06:15:22;24.00;71.30
35497;DHT22;21609;49.298;6.844;2023-06-22T06:17:48;24.00;70.60
35497;DHT22;21609;49.298;6.844;2023-06-22T06:20:18;23.90;70.30
35497;DHT22;21609;49.298;6.844;2023-06-22T06:22:44;24.00;70.10
35497;DHT22;21609;49.298;6.844;2023-06-22T06:25:10;24.00;70.10
35497;DHT22;21609;49.298;6.844;2023-06-22T06:27:35;24.00;70.20
35497;DHT22;21609;49.298;6.844;2023-06-22T06:30:01;24.00;70.90
35497;DHT22;21609;49.298;6.844;2023-06-22T06:32:27;24.10;70.20
35497;DHT22;21609;49.298;6.844;2023-06-22T06:34:52;24.10;69.70
35497;DHT22;21609;49.298;6.844;2023-06-22T06:37:18;24.10;69.70
35497;DHT22;21609;49.298;6.844;2023-06-22T06:39:44;24.10;69.90
35497;DHT22;21609;49.298;6.844;2023-06-22T06:42:10;24.10;69.90
35497;DHT22;21609;49.298;6.844;2023-06-22T06:44:36;24.20;69.50
35497;DHT22;21609;49.298;6.844;2023-06-22T06:47:04;24.20;70.20
35497;DHT22;21609;49.298;6.844;2023-06-22T06:49:29;24.20;70.60
35497;DHT22;21609;49.298;6.844;2023-06-22T06:51:55;24.20;70.80
35497;DHT22;21609;49.298;6.844;2023-06-22T06:54:21;24.30;69.80
35497;DHT22;21609;49.298;6.844;2023-06-22T06:56:47;24.30;69.30
35497;DHT22;21609;49.298;6.844;2023-06-22T06:59:14;24.30;68.70
35497;DHT22;21609;49.298;6.844;2023-06-22T07:01:41;24.40;68.40
35497;DHT22;21609;49.298;6.844;2023-06-22T07:04:06;24.40;68.10
35497;DHT22;21609;49.298;6.844;2023-06-22T07:06:32;24.40;68.30
35497;DHT22;21609;49.298;6.844;2023-06-22T07:08:59;24.40;68.60
35497;DHT22;21609;49.298;6.844;2023-06-22T07:11:25;24.40;68.20
35497;DHT22;21609;49.298;6.844;2023-06-22T07:13:50;24.40;68.10
35497;DHT22;21609;49.298;6.844;2023-06-22T07:16:16;24.40;67.80
35497;DHT22;21609;49.298;6.844;2023-06-22T07:18:41;24.50;67.50
35497;DHT22;21609;49.298;6.844;2023-06-22T07:21:07;24.50;67.70
35497;DHT22;21609;49.298;6.844;2023-06-22T07:23:33;24.50;67.60
35497;DHT22;21609;49.298;6.844;2023-06-22T07:25:58;24.50;67.20
35497;DHT22;21609;49.298;6.844;2023-06-22T07:28:27;24.50;66.90
35497;DHT22;21609;49.298;6.844;2023-06-22T07:30:53;24.50;67.00
35497;DHT22;21609;49.298;6.844;2023-06-22T07:33:18;24.50;66.60
35497;DHT22;21609;49.298;6.844;2023-06-22T07:35:45;24.50;66.70
35497;DHT22;21609;49.298;6.844;2023-06-22T07:38:10;24.50;66.60
35497;DHT22;21609;49.298;6.844;2023-06-22T07:40:36;24.60;66.00
35497;DHT22;21609;49.298;6.844;2023-06-22T07:43:02;24.60;66.60
35497;DHT22;21609;49.298;6.844;2023-06-22T07:45:29;24.50;66.20
35497;DHT22;21609;49.298;6.844;2023-06-22T07:47:54;24.60;66.60
35497;DHT22;21609;49.298;6.844;2023-06-22T07:50:20;24.60;66.80
35497;DHT22;21609;49.298;6.844;2023-06-22T07:52:45;24.60;65.90
35497;DHT22;21609;49.298;6.844;2023-06-22T07:55:12;24.60;66.20
35497;DHT22;21609;49.298;6.844;2023-06-22T07:57:38;24.60;66.50
35497;DHT22;21609;49.298;6.844;2023-06-22T08:00:05;24.60;66.30
35497;DHT22;21609;49.298;6.844;2023-06-22T08:02:41;24.60;66.00
35497;DHT22;21609;49.298;6.844;2023-06-22T08:05:09;24.70;65.70
35497;DHT22;21609;49.298;6.844;2023-06-22T08:07:35;24.60;65.80
35497;DHT22;21609;49.298;6.844;2023-06-22T08:10:03;24.70;65.50
35497;DHT22;21609;49.298;6.844;2023-06-22T08:12:28;24.70;65.60
35497;DHT22;21609;49.298;6.844;2023-06-22T08:14:54;24.70;65.80
35497;DHT22;21609;49.298;6.844;2023-06-22T08:17:20;24.70;65.80
35497;DHT22;21609;49.298;6.844;2023-06-22T08:19:45;24.70;65.60
35497;DHT22;21609;49.298;6.844;2023-06-22T08:22:11;24.70;65.40
35497;DHT22;21609;49.298;6.844;2023-06-22T08:24:36;24.70;65.20
35497;DHT22;21609;49.298;6.844;2023-06-22T08:27:02;24.70;65.20
35497;DHT22;21609;49.298;6.844;2023-06-22T08:29:27;24.70;65.20
35497;DHT22;21609;49.298;6.844;2023-06-22T08:31:53;24.70;65.00
35497;DHT22;21609;49.298;6.844;2023-06-22T08:34:18;24.70;64.70
35497;DHT22;21609;49.298;6.844;2023-06-22T08:36:47;24.80;64.30
35497;DHT22;21609;49.298;6.844;2023-06-22T08:39:17;24.80;64.40
35497;DHT22;21609;49.298;6.844;2023-06-22T08:41:42;24.80;64.60
35497;DHT22;21609;49.298;6.844;2023-06-22T08:44:08;24.80;64.20
35497;DHT22;21609;49.298;6.844;2023-06-22T08:46:33;24.70;64.10
35497;DHT22;21609;49.298;6.844;2023-06-22T08:49:00;24.80;64.50
35497;DHT22;21609;49.298;6.844;2023-06-22T08:51:26;24.80;64.60
35497;DHT22;21609;49.298;6.844;2023-06-22T08:53:52;24.80;64.40
35497;DHT22;21609;49.298;6.844;2023-06-22T08:56:18;24.80;64.20
35497;DHT22;21609;49.298;6.844;2023-06-22T08:58:44;24.80;64.40
35497;DHT22;21609;49.298;6.844;2023-06-22T09:01:09;24.80;63.80
35497;DHT22;21609;49.298;6.844;2023-06-22T09:03:35;24.90;64.00
35497;DHT22;21609;49.298;6.844;2023-06-22T09:06:03;24.90;64.00
35497;DHT22;21609;49.298;6.844;2023-06-22T09:08:28;24.90;63.80
35497;DHT22;21609;49.298;6.844;2023-06-22T09:10:54;24.80;63.30
35497;DHT22;21609;49.298;6.844;2023-06-22T09:13:19;24.90;63.60
35497;DHT22;21609;49.298;6.844;2023-06-22T09:15:45;24.90;63.60
35497;DHT22;21609;49.298;6.844;2023-06-22T09:18:11;24.90;63.40
35497;DHT22;21609;49.298;6.844;2023-06-22T09:20:37;24.90;63.10
35497;DHT22;21609;49.298;6.844;2023-06-22T09:23:02;24.90;63.30
35497;DHT22;21609;49.298;6.844;2023-06-22T09:25:28;24.90;62.60
35497;DHT22;21609;49.298;6.844;2023-06-22T09:27:53;24.90;62.90
35497;DHT22;21609;49.298;6.844;2023-06-22T09:30:19;25.00;63.50
35497;DHT22;21609;49.298;6.844;2023-06-22T09:32:45;25.00;63.10
35497;DHT22;21609;49.298;6.844;2023-06-22T09:35:10;25.00;63.00
35497;DHT22;21609;49.298;6.844;2023-06-22T09:37:38;25.00;62.40
35497;DHT22;21609;49.298;6.844;2023-06-22T09:40:04;25.00;62.40
35497;DHT22;21609;49.298;6.844;2023-06-22T09:42:38;25.00;62.00
35497;DHT22;21609;49.298;6.844;2023-06-22T09:45:05;25.00;61.80
35497;DHT22;21609;49.298;6.844;2023-06-22T09:47:30;25.00;61.70
35497;DHT22;21609;49.298;6.844;2023-06-22T09:49:56;25.00;61.60
35497;DHT22;21609;49.298;6.844;2023-06-22T09:52:24;25.10;62.10
35497;DHT22;21609;49.298;6.844;2023-06-22T09:54:49;25.00;61.50
35497;DHT22;21609;49.298;6.844;2023-06-22T09:57:15;25.10;62.00
35497;DHT22;21609;49.298;6.844;2023-06-22T09:59:42;25.10;61.70
35497;DHT22;21609;49.298;6.844;2023-06-22T10:02:07;25.10;61.50
35497;DHT22;21609;49.298;6.844;2023-06-22T10:04:34;25.10;61.60
35497;DHT22;21609;49.298;6.844;2023-06-22T10:07:00;25.10;61.90
35497;DHT22;21609;49.298;6.844;2023-06-22T10:09:26;25.10;61.20
35497;DHT22;21609;49.298;6.844;2023-06-22T10:11:52;25.10;61.60
35497;DHT22;21609;49.298;6.844;2023-06-22T10:14:18;25.10;61.20
35497;DHT22;21609;49.298;6.844;2023-06-22T10:16:43;25.10;61.10
35497;DHT22;21609;49.298;6.844;2023-06-22T10:19:09;25.10;61.10
35497;DHT22;21609;49.298;6.844;2023-06-22T10:21:34;25.10;61.00
35497;DHT22;21609;49.298;6.844;2023-06-22T10:24:01;25.10;61.20
35497;DHT22;21609;49.298;6.844;2023-06-22T10:26:32;25.20;61.10
35497;DHT22;21609;49.298;6.844;2023-06-22T10:28:58;25.20;61.00
35497;DHT22;21609;49.298;6.844;2023-06-22T10:31:23;25.20;61.10
35497;DHT22;21609;49.298;6.844;2023-06-22T10:33:49;25.20;60.50
35497;DHT22;21609;49.298;6.844;2023-06-22T10:36:15;25.20;61.70
35497;DHT22;21609;49.298;6.844;2023-06-22T10:38:40;25.20;61.00
35497;DHT22;21609;49.298;6.844;2023-06-22T10:41:06;25.20;60.80
35497;DHT22;21609;49.298;6.844;2023-06-22T10:43:32;25.20;60.70
35497;DHT22;21609;49.298;6.844;2023-06-22T10:45:58;25.20;60.80
35497;DHT22;21609;49.298;6.844;2023-06-22T10:48:23;25.20;60.70
35497;DHT22;21609;49.298;6.844;2023-06-22T10:50:49;25.30;60.70
35497;DHT22;21609;49.298;6.844;2023-06-22T10:53:14;25.30;60.80
35497;DHT22;21609;49.298;6.844;2023-06-22T10:55:40;25.30;60.50
35497;DHT22;21609;49.298;6.844;2023-06-22T10:58:05;25.30;60.60
35497;DHT22;21609;49.298;6.844;2023-06-22T11:00:31;25.30;60.60
35497;DHT22;21609;49.298;6.844;2023-06-22T11:02:56;25.30;60.50
35497;DHT22;21609;49.298;6.844;2023-06-22T11:05:23;25.30;60.40
35497;DHT22;21609;49.298;6.844;2023-06-22T11:07:49;25.30;60.40
35497;DHT22;21609;49.298;6.844;2023-06-22T11:10:15;25.30;60.40
35497;DHT22;21609;49.298;6.844;2023-06-22T11:12:40;25.30;60.40
35497;DHT22;21609;49.298;6.844;2023-06-22T11:15:08;25.30;60.40
35497;DHT22;21609;49.298;6.844;2023-06-22T11:17:34;25.30;60.20
35497;DHT22;21609;49.298;6.844;2023-06-22T11:20:00;25.40;60.50
35497;DHT22;21609;49.298;6.844;2023-06-22T11:22:26;25.40;60.30
35497;DHT22;21609;49.298;6.844;2023-06-22T11:24:52;25.40;60.20
35497;DHT22;21609;49.298;6.844;2023-06-22T11:27:17;25.40;60.00
35497;DHT22;21609;49.298;6.844;2023-06-22T11:29:43;25.40;60.10
35497;DHT22;21609;49.298;6.844;2023-06-22T11:32:08;25.40;60.10
35497;DHT22;21609;49.298;6.844;2023-06-22T11:34:34;25.40;60.00
35497;DHT22;21609;49.298;6.844;2023-06-22T11:37:00;25.40;60.00
35497;DHT22;21609;49.298;6.844;2023-06-22T11:39:25;25.40;60.10
35497;DHT22;21609;49.298;6.844;2023-06-22T11:41:51;25.40;60.10
35497;DHT22;21609;49.298;6.844;2023-06-22T11:44:16;25.40;59.90
35497;DHT22;21609;49.298;6.844;2023-06-22T11:46:42;25.40;59.90
35497;DHT22;21609;49.298;6.844;2023-06-22T11:49:08;25.40;60.00
35497;DHT22;21609;49.298;6.844;2023-06-22T11:51:33;25.40;59.80
35497;DHT22;21609;49.298;6.844;2023-06-22T11:53:59;25.40;60.70
35497;DHT22;21609;49.298;6.844;2023-06-22T11:56:25;25.50;60.10
35497;DHT22;21609;49.298;6.844;2023-06-22T11:58:50;25.40;59.80
35497;DHT22;21609;49.298;6.844;2023-06-22T12:01:16;25.50;59.90
35497;DHT22;21609;49.298;6.844;2023-06-22T12:03:42;25.50;59.90
35497;DHT22;21609;49.298;6.844;2023-06-22T12:06:09;25.50;59.80
35497;DHT22;21609;49.298;6.844;2023-06-22T12:08:35;25.50;59.60
35497;DHT22;21609;49.298;6.844;2023-06-22T12:11:00;25.50;59.80
35497;DHT22;21609;49.298;6.844;2023-06-22T12:13:26;25.50;59.60
35497;DHT22;21609;49.298;6.844;2023-06-22T12:15:51;25.50;59.40
35497;DHT22;21609;49.298;6.844;2023-06-22T12:18:20;25.50;59.80
35497;DHT22;21609;49.298;6.844;2023-06-22T12:20:49;25.50;59.20
35497;DHT22;21609;49.298;6.844;2023-06-22T12:23:15;25.60;59.50
35497;DHT22;21609;49.298;6.844;2023-06-22T12:25:40;25.60;59.20
35497;DHT22;21609;49.298;6.844;2023-06-22T12:28:06;25.60;59.30
35497;DHT22;21609;49.298;6.844;2023-06-22T12:30:35;25.60;59.50
35497;DHT22;21609;49.298;6.844;2023-06-22T12:33:00;25.60;59.20
35497;DHT22;21609;49.298;6.844;2023-06-22T12:35:26;25.60;59.10
35497;DHT22;21609;49.298;6.844;2023-06-22T12:37:51;25.60;59.10
35497;DHT22;21609;49.298;6.844;2023-06-22T12:40:18;25.60;59.40
35497;DHT22;21609;49.298;6.844;2023-06-22T12:42:45;25.70;58.90
35497;DHT22;21609;49.298;6.844;2023-06-22T12:45:10;25.70;59.20
35497;DHT22;21609;49.298;6.844;2023-06-22T12:47:36;25.70;59.20
35497;DHT22;21609;49.298;6.844;2023-06-22T12:50:02;25.70;59.50
35497;DHT22;21609;49.298;6.844;2023-06-22T12:52:30;25.70;59.30
35497;DHT22;21609;49.298;6.844;2023-06-22T12:54:55;25.70;59.20
35497;DHT22;21609;49.298;6.844;2023-06-22T12:57:21;25.70;59.30
35497;DHT22;21609;49.298;6.844;2023-06-22T12:59:47;25.70;59.00
35497;DHT22;21609;49.298;6.844;2023-06-22T13:02:12;25.80;59.30
35497;DHT22;21609;49.298;6.844;2023-06-22T13:04:38;25.80;59.40
35497;DHT22;21609;49.298;6.844;2023-06-22T13:07:04;25.80;59.20
35497;DHT22;21609;49.298;6.844;2023-06-22T13:09:30;25.80;58.70
35497;DHT22;21609;49.298;6.844;2023-06-22T13:11:56;25.80;58.60
35497;DHT22;21609;49.298;6.844;2023-06-22T13:14:22;25.80;58.40
35497;DHT22;21609;49.298;6.844;2023-06-22T13:16:47;25.90;58.20
35497;DHT22;21609;49.298;6.844;2023-06-22T13:19:13;25.90;58.40
35497;DHT22;21609;49.298;6.844;2023-06-22T13:21:38;25.90;57.90
35497;DHT22;21609;49.298;6.844;2023-06-22T13:24:04;25.90;58.00
35497;DHT22;21609;49.298;6.844;2023-06-22T13:26:31;25.90;58.20
35497;DHT22;21609;49.298;6.844;2023-06-22T13:28:57;25.90;58.60
35497;DHT22;21609;49.298;6.844;2023-06-22T13:31:22;26.00;58.30
35497;DHT22;21609;49.298;6.844;2023-06-22T13:33:48;26.00;58.00
35497;DHT22;21609;49.298;6.844;2023-06-22T13:36:14;26.00;58.30
35497;DHT22;21609;49.298;6.844;2023-06-22T13:38:39;26.00;58.20
35497;DHT22;21609;49.298;6.844;2023-06-22T13:41:05;26.00;58.20
35497;DHT22;21609;49.298;6.844;2023-06-22T13:43:31;26.00;58.20
35497;DHT22;21609;49.298;6.844;2023-06-22T13:45:57;26.00;58.50
35497;DHT22;21609;49.298;6.844;2023-06-22T13:48:23;26.00;58.00
35497;DHT22;21609;49.298;6.844;2023-06-22T13:50:51;26.00;58.20
35497;DHT22;21609;49.298;6.844;2023-06-22T13:53:16;26.10;58.30
35497;DHT22;21609;49.298;6.844;2023-06-22T13:55:42;26.00;58.20
35497;DHT22;21609;49.298;6.844;2023-06-22T13:58:08;26.00;58.10
35497;DHT22;21609;49.298;6.844;2023-06-22T14:00:33;26.00;58.00
35497;DHT22;21609;49.298;6.844;2023-06-22T14:02:59;26.00;57.90
35497;DHT22;21609;49.298;6.844;2023-06-22T14:05:24;26.10;57.80
35497;DHT22;21609;49.298;6.844;2023-06-22T14:07:50;26.10;58.00
35497;DHT22;21609;49.298;6.844;2023-06-22T14:10:15;26.00;57.90
35497;DHT22;21609;49.298;6.844;2023-06-22T14:12:41;26.10;57.70
35497;DHT22;21609;49.298;6.844;2023-06-22T14:15:07;26.10;57.90
35497;DHT22;21609;49.298;6.844;2023-06-22T14:17:32;26.10;58.20
35497;DHT22;21609;49.298;6.844;2023-06-22T14:19:58;26.10;57.80
35497;DHT22;21609;49.298;6.844;2023-06-22T14:22:23;26.10;57.70
35497;DHT22;21609;49.298;6.844;2023-06-22T14:24:49;26.10;57.60
35497;DHT22;21609;49.298;6.844;2023-06-22T14:27:15;26.10;57.70
35497;DHT22;21609;49.298;6.844;2023-06-22T14:29:41;26.10;58.00
35497;DHT22;21609;49.298;6.844;2023-06-22T14:32:07;26.10;57.40
35497;DHT22;21609;49.298;6.844;2023-06-22T14:34:33;26.10;57.30
35497;DHT22;21609;49.298;6.844;2023-06-22T14:37:01;26.10;57.40
35497;DHT22;21609;49.298;6.844;2023-06-22T14:39:27;26.10;57.30
35497;DHT22;21609;49.298;6.844;2023-06-22T14:41:53;26.10;57.40
35497;DHT22;21609;49.298;6.844;2023-06-22T14:44:18;26.10;57.10
35497;DHT22;21609;49.298;6.844;2023-06-22T14:46:44;26.10;57.30
35497;DHT22;21609;49.298;6.844;2023-06-22T14:49:09;26.20;57.30
35497;DHT22;21609;49.298;6.844;2023-06-22T14:51:35;26.20;57.20
35497;DHT22;21609;49.298;6.844;2023-06-22T14:54:00;26.20;57.20
35497;DHT22;21609;49.298;6.844;2023-06-22T14:56:26;26.20;57.10
35497;DHT22;21609;49.298;6.844;2023-06-22T14:58:51;26.20;57.20
35497;DHT22;21609;49.298;6.844;2023-06-22T15:01:17;26.20;57.10
35497;DHT22;21609;49.298;6.844;2023-06-22T15:03:43;26.20;57.20
35497;DHT22;21609;49.298;6.844;2023-06-22T15:06:09;26.20;56.80
35497;DHT22;21609;49.298;6.844;2023-06-22T15:08:37;26.20;56.90
35497;DHT22;21609;49.298;6.844;2023-06-22T15:11:03;26.20;57.00
35497;DHT22;21609;49.298;6.844;2023-06-22T15:13:30;26.10;56.70
35497;DHT22;21609;49.298;6.844;2023-06-22T15:15:59;26.10;56.60
35497;DHT22;21609;49.298;6.844;2023-06-22T15:18:25;26.10;56.60
35497;DHT22;21609;49.298;6.844;2023-06-22T15:20:50;26.10;56.70
35497;DHT22;21609;49.298;6.844;2023-06-22T15:23:17;26.10;56.80
35497;DHT22;21609;49.298;6.844;2023-06-22T15:25:43;26.10;56.80
35497;DHT22;21609;49.298;6.844;2023-06-22T15:28:09;26.10;56.80
35497;DHT22;21609;49.298;6.844;2023-06-22T15:30:35;26.10;56.80